RJTJ(METAR)
10/21 05:00
METAR RJTJ 202000Z 33005KT 9999 SCT030 BKN050 12/11 Q1026 RMK 3CU030
6SC050 A3031=
戻る
トップページへ戻る
IMOC Co,.Ltd.